createdAt,value
2022-09-01T00:00:50.178Z,100421.09
2022-09-01T00:03:55.554Z,100421.88
2022-09-01T00:07:00.263Z,100420.34
2022-09-01T00:10:07.467Z,100418.15
2022-09-01T00:13:10.498Z,100416.15
2022-09-01T00:16:16.796Z,100414.45
2022-09-01T00:19:33.636Z,100417.26
2022-09-01T00:22:37.017Z,100413.48
2022-09-01T00:26:04.241Z,100414.42
2022-09-01T00:29:07.626Z,100415.95
2022-09-01T00:32:11.834Z,100417.63
2022-09-01T00:35:17.670Z,100419.45
2022-09-01T00:38:20.871Z,100419.48
2022-09-01T00:41:31.482Z,100416.53
2022-09-01T00:44:36.723Z,100414.95
2022-09-01T00:47:42.852Z,100410.15
2022-09-01T00:50:50.773Z,100409.66
2022-09-01T00:53:58.828Z,100404.81
2022-09-01T00:57:04.611Z,100407.98
2022-09-01T01:00:13.587Z,100411.38
2022-09-01T01:03:22.071Z,100415.52
2022-09-01T01:06:29.748Z,100406.56
2022-09-01T01:09:42.550Z,100410.20
2022-09-01T01:12:46.334Z,100411.75
2022-09-01T01:15:49.414Z,100408.95
2022-09-01T01:18:53.409Z,100405.89
2022-09-01T01:22:15.618Z,100405.14
2022-09-01T01:25:22.786Z,100405.52
2022-09-01T01:28:32.508Z,100409.02
2022-09-01T01:31:35.586Z,100414.76
2022-09-01T01:34:40.793Z,100411.83
2022-09-01T01:37:46.850Z,100409.98
2022-09-01T01:40:49.994Z,100411.87
2022-09-01T01:43:52.952Z,100414.16
2022-09-01T01:46:57.715Z,100412.80
2022-09-01T01:50:00.687Z,100407.64
2022-09-01T01:53:11.011Z,100409.55
2022-09-01T01:56:14.717Z,100405.83
2022-09-01T01:59:19.638Z,100401.67
2022-09-01T02:02:25.716Z,100402.12
2022-09-01T02:05:32.739Z,100400.13
2022-09-01T02:08:37.964Z,100403.66
2022-09-01T02:11:41.041Z,100406.10
2022-09-01T02:14:44.118Z,100407.33
2022-09-01T02:17:47.495Z,100403.98
2022-09-01T02:20:52.523Z,100405.31
2022-09-01T02:24:04.594Z,100406.02
2022-09-01T02:27:07.572Z,100399.27
2022-09-01T02:30:13.118Z,100398.48
2022-09-01T02:33:19.355Z,100397.11
2022-09-01T02:36:23.139Z,100398.63
2022-09-01T02:39:29.879Z,100398.42
2022-09-01T02:42:32.872Z,100393.96
2022-09-01T02:45:40.294Z,100394.70
2022-09-01T02:48:46.359Z,100395.60
2022-09-01T02:51:54.291Z,100395.46
2022-09-01T02:54:58.854Z,100394.73
2022-09-01T02:58:02.468Z,100397.39
2022-09-01T03:01:05.575Z,100395.45
2022-09-01T03:04:11.280Z,100397.55
2022-09-01T03:07:14.251Z,100395.45
2022-09-01T03:10:17.698Z,100395.54
2022-09-01T03:13:24.134Z,100395.14
2022-09-01T03:16:27.796Z,100399.19
2022-09-01T03:19:56.224Z,100396.14
2022-09-01T03:22:59.606Z,100394.84
2022-09-01T03:26:03.194Z,100397.78
2022-09-01T03:29:06.781Z,100397.52
2022-09-01T03:32:09.882Z,100396.36
2022-09-01T03:35:20.398Z,100394.24
2022-09-01T03:38:24.761Z,100393.36
2022-09-01T03:41:30.536Z,100390.38
2022-09-01T03:44:40.676Z,100396.52
2022-09-01T03:47:43.953Z,100398.55
2022-09-01T03:50:47.559Z,100400.57
2022-09-01T03:53:57.270Z,100406.04
2022-09-01T03:57:06.107Z,100405.89
2022-09-01T04:00:20.714Z,100406.03
2022-09-01T04:03:28.723Z,100404.98
2022-09-01T04:06:32.590Z,100403.58
2022-09-01T04:09:35.665Z,100405.52
2022-09-01T04:12:39.943Z,100406.23
2022-09-01T04:15:43.143Z,100401.30
2022-09-01T04:18:51.545Z,100402.02
2022-09-01T04:21:57.994Z,100402.16
2022-09-01T04:25:00.964Z,100402.23
2022-09-01T04:28:13.304Z,100405.74
2022-09-01T04:31:20.105Z,100404.04
2022-09-01T04:34:24.413Z,100411.30
2022-09-01T04:37:27.895Z,100410.61
2022-09-01T04:40:30.935Z,100411.58
2022-09-01T04:43:36.076Z,100412.08
2022-09-01T04:46:42.598Z,100407.28
2022-09-01T04:49:48.482Z,100408.88
2022-09-01T04:52:54.630Z,100411.20
2022-09-01T04:56:04.764Z,100413.91
2022-09-01T04:59:11.114Z,100411.69
2022-09-01T05:02:14.332Z,100408.98
2022-09-01T05:05:17.571Z,100411.64
2022-09-01T05:08:24.459Z,100414.18
2022-09-01T05:11:28.228Z,100412.13
2022-09-01T05:14:31.297Z,100411.33
2022-09-01T05:17:34.473Z,100413.56
2022-09-01T05:20:42.301Z,100411.64
2022-09-01T05:23:46.661Z,100408.51
2022-09-01T05:26:51.066Z,100410.63
2022-09-01T05:29:56.222Z,100411.05
2022-09-01T05:32:59.469Z,100411.08
2022-09-01T05:36:08.707Z,100409.77
2022-09-01T05:39:12.454Z,100414.40
2022-09-01T05:42:15.650Z,100413.11
2022-09-01T05:45:20.700Z,100412.60
2022-09-01T05:48:24.151Z,100413.44
2022-09-01T05:51:45.795Z,100415.00
2022-09-01T05:54:49.919Z,100408.66
2022-09-01T05:57:54.253Z,100411.19
2022-09-01T06:00:59.475Z,100416.14
2022-09-01T06:04:05.926Z,100419.95
2022-09-01T06:07:16.456Z,100424.10
2022-09-01T06:10:19.752Z,100429.80
2022-09-01T06:13:27.462Z,100426.44
2022-09-01T06:16:32.885Z,100423.47
2022-09-01T06:19:38.924Z,100427.08
2022-09-01T06:22:47.919Z,100426.81
2022-09-01T06:25:52.112Z,100429.77
2022-09-01T06:28:57.637Z,100431.27
2022-09-01T06:32:02.662Z,100431.90
2022-09-01T06:35:08.702Z,100435.63
2022-09-01T06:38:13.357Z,100436.64
2022-09-01T06:41:19.783Z,100438.09
2022-09-01T06:44:23.507Z,100437.79
2022-09-01T06:47:28.840Z,100443.61
2022-09-01T06:53:59.745Z,100446.71
2022-09-01T07:00:29.071Z,100450.51
2022-09-01T07:03:33.478Z,100447.44
2022-09-01T07:10:18.574Z,100452.25
2022-09-01T07:13:27.831Z,100450.70
2022-09-01T07:16:38.524Z,100453.74
2022-09-01T07:19:49.023Z,100450.75
2022-09-01T07:23:06.407Z,100454.18
2022-09-01T07:26:24.617Z,100454.73
2022-09-01T07:29:31.001Z,100452.40
2022-09-01T07:32:43.932Z,100448.02
2022-09-01T07:49:33.242Z,100453.02
2022-09-01T07:52:54.190Z,100456.76
2022-09-01T07:55:59.324Z,100458.48
2022-09-01T07:59:02.596Z,100457.88
2022-09-01T08:02:06.247Z,100459.16
2022-09-01T08:05:13.529Z,100462.48
2022-09-01T08:08:20.424Z,100456.81
2022-09-01T08:11:58.169Z,100459.70
2022-09-01T08:18:16.590Z,100461.96
2022-09-01T08:21:23.672Z,100465.44
2022-09-01T08:24:26.745Z,100468.13
2022-09-01T08:27:29.822Z,100466.13
2022-09-01T08:30:33.512Z,100470.48
2022-09-01T08:33:42.180Z,100472.84
2022-09-01T08:36:45.095Z,100477.95
2022-09-01T08:39:49.796Z,100478.61
2022-09-01T08:43:00.235Z,100474.98
2022-09-01T08:46:13.385Z,100477.45
2022-09-01T08:49:26.890Z,100479.25
2022-09-01T08:52:37.807Z,100485.37
2022-09-01T08:55:52.100Z,100482.69
2022-09-01T08:58:56.007Z,100481.25
2022-09-01T09:02:36.583Z,100479.81
2022-09-01T09:05:48.230Z,100480.42
2022-09-01T09:09:06.562Z,100475.02
2022-09-01T09:12:54.449Z,100470.38
2022-09-01T09:16:26.117Z,100470.50
2022-09-01T09:19:36.414Z,100473.91
2022-09-01T09:22:59.358Z,100476.11
2022-09-01T09:26:03.493Z,100472.70
2022-09-01T09:29:06.724Z,100472.48
2022-09-01T09:35:36.711Z,100466.02
2022-09-01T09:38:40.508Z,100463.02
2022-09-01T09:41:48.381Z,100466.09
2022-09-01T09:44:57.674Z,100460.62
2022-09-01T09:48:06.202Z,100459.73
2022-09-01T09:51:21.350Z,100459.34
2022-09-01T09:54:33.245Z,100461.00
2022-09-01T09:57:41.699Z,100454.31
2022-09-01T10:01:20.347Z,100452.02
2022-09-01T10:04:36.893Z,100451.08
2022-09-01T10:07:40.580Z,100455.59
2022-09-01T10:10:56.497Z,100448.80
2022-09-01T10:14:05.154Z,100455.17
2022-09-01T10:17:40.531Z,100458.80
2022-09-01T10:21:21.910Z,100454.43
2022-09-01T10:24:38.874Z,100453.66
2022-09-01T10:27:48.121Z,100452.45
2022-09-01T10:30:53.791Z,100451.13
2022-09-01T10:33:58.630Z,100450.44
2022-09-01T10:37:02.361Z,100446.30
2022-09-01T10:40:15.923Z,100440.63
2022-09-01T10:43:38.075Z,100438.06
2022-09-01T10:46:49.400Z,100441.74
2022-09-01T10:49:53.640Z,100441.58
2022-09-01T10:53:00.973Z,100443.83
2022-09-01T10:56:28.145Z,100441.30
2022-09-01T10:59:35.575Z,100445.33
2022-09-01T11:02:46.388Z,100443.23
2022-09-01T11:06:11.989Z,100443.48
2022-09-01T11:09:26.588Z,100443.95
2022-09-01T11:13:19.000Z,100442.64
2022-09-01T11:16:48.075Z,100439.91
2022-09-01T11:20:22.620Z,100432.38
2022-09-01T11:23:28.824Z,100430.80
2022-09-01T11:26:35.858Z,100432.98
2022-09-01T11:30:07.585Z,100428.14
2022-09-01T11:33:29.707Z,100426.99
2022-09-01T11:36:51.962Z,100433.23
2022-09-01T11:40:02.591Z,100433.03
2022-09-01T11:43:12.835Z,100434.73
2022-09-01T11:46:27.960Z,100429.39
2022-09-01T11:49:36.036Z,100437.44
2022-09-01T11:52:39.184Z,100434.45
2022-09-01T11:55:45.151Z,100434.73
2022-09-01T11:58:48.324Z,100425.94
2022-09-01T12:01:58.699Z,100416.38
2022-09-01T12:05:04.330Z,100416.58
2022-09-01T12:08:15.145Z,100418.48
2022-09-01T12:11:37.101Z,100412.98
2022-09-01T12:15:04.443Z,100412.13
2022-09-01T12:18:14.820Z,100413.93
2022-09-01T12:21:31.402Z,100414.24
2022-09-01T12:24:36.113Z,100412.12
2022-09-01T12:27:41.115Z,100409.25
2022-09-01T12:30:45.148Z,100408.56
2022-09-01T12:33:49.123Z,100410.53
2022-09-01T12:37:04.786Z,100407.42
2022-09-01T12:40:23.074Z,100406.00
2022-09-01T12:43:37.246Z,100403.65
2022-09-01T12:46:46.667Z,100408.01
2022-09-01T12:49:52.109Z,100404.44
2022-09-01T12:52:59.078Z,100399.55
2022-09-01T12:56:31.603Z,100393.93
2022-09-01T12:59:37.304Z,100396.70
2022-09-01T13:02:51.013Z,100398.68
2022-09-01T13:05:56.373Z,100397.22
2022-09-01T13:08:59.344Z,100398.27
2022-09-01T13:12:22.225Z,100399.48
2022-09-01T13:15:26.268Z,100396.95
2022-09-01T13:18:29.783Z,100400.56
2022-09-01T13:21:35.329Z,100399.57
2022-09-01T13:24:39.746Z,100400.14
2022-09-01T13:27:44.499Z,100390.84
2022-09-01T13:31:28.581Z,100391.40
2022-09-01T13:34:23.344Z,100387.39
2022-09-01T13:37:26.674Z,100390.45
2022-09-01T13:40:29.789Z,100390.16
2022-09-01T13:43:35.021Z,100390.42
2022-09-01T13:46:59.065Z,100393.73
2022-09-01T13:50:11.087Z,100391.30
2022-09-01T13:53:15.306Z,100390.48
2022-09-01T13:56:18.893Z,100387.58
2022-09-01T13:59:21.968Z,100387.96
2022-09-01T14:02:26.679Z,100383.77
2022-09-01T14:05:35.993Z,100380.94
2022-09-01T14:08:39.070Z,100378.82
2022-09-01T14:11:42.143Z,100378.13
2022-09-01T14:18:09.168Z,100378.91
2022-09-01T14:21:16.543Z,100381.80
2022-09-01T14:24:20.281Z,100381.48
2022-09-01T14:27:23.600Z,100382.42
2022-09-01T14:30:31.386Z,100378.77
2022-09-01T14:33:37.054Z,100376.31
2022-09-01T14:36:40.006Z,100376.86
2022-09-01T14:39:43.182Z,100377.77
2022-09-01T14:42:49.711Z,100374.92
2022-09-01T14:46:06.926Z,100372.48
2022-09-01T14:49:12.015Z,100374.29
2022-09-01T14:52:15.723Z,100370.41
2022-09-01T14:55:19.633Z,100368.52
2022-09-01T14:58:22.820Z,100365.98
2022-09-01T15:01:34.146Z,100360.74
2022-09-01T15:04:38.120Z,100358.14
2022-09-01T15:07:41.450Z,100356.77
2022-09-01T15:10:44.937Z,100355.52
2022-09-01T15:13:48.210Z,100356.02
2022-09-01T15:16:51.294Z,100358.38
2022-09-01T15:19:54.769Z,100356.13
2022-09-01T15:22:57.843Z,100358.34
2022-09-01T15:26:01.328Z,100361.12
2022-09-01T15:29:10.596Z,100359.42
2022-09-01T15:32:20.860Z,100356.42
2022-09-01T15:35:32.704Z,100354.45
2022-09-01T15:38:36.242Z,100352.27
2022-09-01T15:41:39.625Z,100354.34
2022-09-01T15:44:43.929Z,100356.48
2022-09-01T15:47:48.725Z,100345.49
2022-09-01T15:50:51.818Z,100348.94
2022-09-01T15:54:00.319Z,100348.11
2022-09-01T15:57:03.867Z,100348.10
2022-09-01T16:00:08.001Z,100346.79
2022-09-01T16:03:11.791Z,100348.86
2022-09-01T16:06:15.486Z,100346.97
2022-09-01T16:09:21.326Z,100351.16
2022-09-01T16:12:26.726Z,100351.45
2022-09-01T16:15:30.091Z,100352.60
2022-09-01T16:18:46.105Z,100352.56
2022-09-01T16:21:56.649Z,100347.98
2022-09-01T16:25:02.379Z,100346.73
2022-09-01T16:28:25.833Z,100346.39
2022-09-01T16:31:32.308Z,100349.02
2022-09-01T16:34:36.260Z,100346.19
2022-09-01T16:37:55.195Z,100341.42
2022-09-01T16:41:16.795Z,100342.80
2022-09-01T16:44:46.784Z,100342.56
2022-09-01T16:48:01.833Z,100339.70
2022-09-01T16:51:14.218Z,100338.48
2022-09-01T16:54:25.958Z,100339.67
2022-09-01T16:57:41.711Z,100340.80
2022-09-01T17:01:00.735Z,100337.87
2022-09-01T17:04:06.629Z,100339.88
2022-09-01T17:07:29.562Z,100340.62
2022-09-01T17:10:52.130Z,100341.98
2022-09-01T17:13:56.327Z,100341.05
2022-09-01T17:17:09.544Z,100345.27
2022-09-01T17:20:17.035Z,100346.02
2022-09-01T17:23:28.838Z,100349.21
2022-09-01T17:26:33.752Z,100346.72
2022-09-01T17:29:57.419Z,100353.65
2022-09-01T17:33:37.510Z,100351.38
2022-09-01T17:37:07.214Z,100353.67
2022-09-01T17:40:19.728Z,100353.38
2022-09-01T17:43:48.748Z,100354.71
2022-09-01T17:47:03.657Z,100363.00
2022-09-01T17:50:18.443Z,100362.92
2022-09-01T17:53:43.409Z,100362.36
2022-09-01T17:57:12.781Z,100372.98
2022-09-01T18:00:25.560Z,100375.95
2022-09-01T18:04:00.381Z,100381.94
2022-09-01T18:07:49.474Z,100386.84
2022-09-01T18:10:58.732Z,100390.06
2022-09-01T18:14:09.062Z,100389.29
2022-09-01T18:17:24.824Z,100396.27
2022-09-01T18:20:42.045Z,100393.65
2022-09-01T18:23:47.783Z,100398.88
2022-09-01T18:26:53.140Z,100400.02
2022-09-01T18:29:57.182Z,100406.06
2022-09-01T18:33:12.568Z,100400.91
2022-09-01T18:36:40.065Z,100398.31
2022-09-01T18:40:06.116Z,100400.77
2022-09-01T18:43:22.229Z,100409.12
2022-09-01T18:47:03.688Z,100412.61
2022-09-01T18:50:19.144Z,100411.71
2022-09-01T18:53:28.868Z,100415.02
2022-09-01T18:56:55.069Z,100415.06
2022-09-01T19:00:18.848Z,100417.70
2022-09-01T19:03:39.040Z,100420.29
2022-09-01T19:07:15.618Z,100418.91
2022-09-01T19:10:56.663Z,100420.87
2022-09-01T19:14:13.171Z,100421.88
2022-09-01T19:17:25.528Z,100423.98
2022-09-01T19:20:32.080Z,100431.04
2022-09-01T19:23:42.426Z,100425.81
2022-09-01T19:26:50.817Z,100423.13
2022-09-01T19:29:59.110Z,100425.84
2022-09-01T19:33:04.947Z,100423.39
2022-09-01T19:36:12.682Z,100421.34
2022-09-01T19:39:21.093Z,100423.11
2022-09-01T19:42:36.479Z,100424.92
2022-09-01T19:46:05.097Z,100424.86
2022-09-01T19:49:27.453Z,100427.19
2022-09-01T19:53:01.023Z,100427.74
2022-09-01T19:56:17.501Z,100424.71
2022-09-01T19:59:40.124Z,100427.84
2022-09-01T20:03:13.223Z,100429.20
2022-09-01T20:06:40.840Z,100425.13
2022-09-01T20:10:00.264Z,100428.67
2022-09-01T20:13:18.993Z,100431.19
2022-09-01T20:16:42.024Z,100427.57
2022-09-01T20:19:55.529Z,100427.02
2022-09-01T20:22:58.508Z,100430.02
2022-09-01T20:26:32.285Z,100430.98
2022-09-01T20:29:57.950Z,100429.24
2022-09-01T20:33:04.331Z,100432.05
2022-09-01T20:36:14.259Z,100434.73
2022-09-01T20:39:39.745Z,100432.77
2022-09-01T20:42:46.351Z,100433.98
2022-09-01T20:45:49.704Z,100435.05
2022-09-01T20:48:53.057Z,100435.19
2022-09-01T20:52:06.376Z,100437.13
2022-09-01T20:55:23.631Z,100435.59
2022-09-01T20:58:54.324Z,100437.94
2022-09-01T21:02:22.767Z,100435.29
2022-09-01T21:05:41.782Z,100437.75
2022-09-01T21:09:01.619Z,100436.40
2022-09-01T21:12:25.978Z,100437.63
2022-09-01T21:15:41.845Z,100435.00
2022-09-01T21:18:56.891Z,100433.55
2022-09-01T21:22:04.364Z,100435.29
2022-09-01T21:25:07.849Z,100434.16
2022-09-01T21:28:19.953Z,100435.85
2022-09-01T21:31:24.528Z,100434.58
2022-09-01T21:34:28.227Z,100437.31
2022-09-01T21:37:31.301Z,100441.02
2022-09-01T21:40:34.757Z,100442.20
2022-09-01T21:43:41.854Z,100444.27
2022-09-01T21:46:44.932Z,100442.84
2022-09-01T21:49:48.273Z,100440.74
2022-09-01T21:52:52.303Z,100441.31
2022-09-01T21:55:55.276Z,100440.48
2022-09-01T21:58:59.634Z,100437.98
2022-09-01T22:02:03.513Z,100436.44
2022-09-01T22:05:06.952Z,100437.36
2022-09-01T22:08:12.542Z,100435.44
2022-09-01T22:11:16.787Z,100432.80
2022-09-01T22:14:21.497Z,100425.58
2022-09-01T22:17:24.887Z,100428.27
2022-09-01T22:20:29.472Z,100428.54
2022-09-01T22:23:32.973Z,100426.32
2022-09-01T22:26:36.822Z,100427.19
2022-09-01T22:29:40.556Z,100433.08
2022-09-01T22:32:45.580Z,100428.53
2022-09-01T22:35:51.850Z,100433.13
2022-09-01T22:38:56.043Z,100434.48
2022-09-01T22:41:59.731Z,100429.70
2022-09-01T22:45:04.815Z,100430.66
2022-09-01T22:48:08.026Z,100434.09
2022-09-01T22:51:12.909Z,100429.80
2022-09-01T22:54:16.634Z,100426.65
2022-09-01T22:57:20.523Z,100429.15
2022-09-01T23:00:24.621Z,100425.54
2022-09-01T23:03:27.594Z,100423.80
2022-09-01T23:06:32.058Z,100422.13
2022-09-01T23:09:35.689Z,100420.55
2022-09-01T23:12:39.382Z,100415.55
2022-09-01T23:15:42.758Z,100414.29
2022-09-01T23:18:47.738Z,100414.85
2022-09-01T23:21:51.986Z,100410.89
2022-09-01T23:24:58.236Z,100407.19
2022-09-01T23:28:01.203Z,100409.99
2022-09-01T23:31:08.098Z,100411.88
2022-09-01T23:34:13.487Z,100410.52
2022-09-01T23:37:17.001Z,100407.92
2022-09-01T23:40:20.438Z,100405.04
2022-09-01T23:43:26.150Z,100407.36
2022-09-01T23:46:37.385Z,100404.80
2022-09-01T23:49:40.768Z,100401.71
2022-09-01T23:52:43.938Z,100403.81
2022-09-01T23:55:50.220Z,100404.08
2022-09-01T23:58:54.023Z,100399.30
